sensor_id;sensor_type;location;lat;lon;timestamp;temperature;humidity
40255;DHT22;25973;52.368;4.940;2022-12-20T00:01:13;9.90;99.90
40255;DHT22;25973;52.368;4.940;2022-12-20T00:03:40;10.00;99.90
40255;DHT22;25973;52.368;4.940;2022-12-20T00:06:06;10.00;99.90
40255;DHT22;25973;52.368;4.940;2022-12-20T00:08:32;10.00;99.90
40255;DHT22;25973;52.368;4.940;2022-12-20T00:11:00;9.90;99.90
40255;DHT22;25973;52.368;4.940;2022-12-20T00:13:26;9.90;99.90
40255;DHT22;25973;52.368;4.940;2022-12-20T00:16:03;9.90;99.90
40255;DHT22;25973;52.368;4.940;2022-12-20T00:18:29;9.90;99.90
40255;DHT22;25973;52.368;4.940;2022-12-20T00:20:59;9.90;99.90
40255;DHT22;25973;52.368;4.940;2022-12-20T00:23:25;9.90;99.90
40255;DHT22;25973;52.368;4.940;2022-12-20T00:25:51;9.80;99.90
40255;DHT22;25973;52.368;4.940;2022-12-20T00:28:16;9.80;99.90
40255;DHT22;25973;52.368;4.940;2022-12-20T00:30:42;9.90;99.90
40255;DHT22;25973;52.368;4.940;2022-12-20T00:33:07;9.90;99.90
40255;DHT22;25973;52.368;4.940;2022-12-20T00:35:33;9.80;99.90
40255;DHT22;25973;52.368;4.940;2022-12-20T00:37:58;9.80;99.90
40255;DHT22;25973;52.368;4.940;2022-12-20T00:40:24;9.80;99.90
40255;DHT22;25973;52.368;4.940;2022-12-20T00:42:50;9.80;99.90
40255;DHT22;25973;52.368;4.940;2022-12-20T00:45:16;9.80;99.90
40255;DHT22;25973;52.368;4.940;2022-12-20T00:47:41;9.80;99.90
40255;DHT22;25973;52.368;4.940;2022-12-20T00:50:07;9.80;99.90
40255;DHT22;25973;52.368;4.940;2022-12-20T00:52:32;9.80;99.90
40255;DHT22;25973;52.368;4.940;2022-12-20T00:54:58;9.80;99.90
40255;DHT22;25973;52.368;4.940;2022-12-20T00:57:23;9.80;99.90
40255;DHT22;25973;52.368;4.940;2022-12-20T00:59:49;9.80;99.90
40255;DHT22;25973;52.368;4.940;2022-12-20T01:02:14;9.80;99.90
40255;DHT22;25973;52.368;4.940;2022-12-20T01:04:40;9.80;99.90
40255;DHT22;25973;52.368;4.940;2022-12-20T01:07:06;9.80;99.90
40255;DHT22;25973;52.368;4.940;2022-12-20T01:09:31;9.80;99.90
40255;DHT22;25973;52.368;4.940;2022-12-20T01:11:57;9.80;99.90
40255;DHT22;25973;52.368;4.940;2022-12-20T01:14:22;9.80;99.90
40255;DHT22;25973;52.368;4.940;2022-12-20T01:16:48;9.80;99.90
40255;DHT22;25973;52.368;4.940;2022-12-20T01:19:15;9.80;99.90
40255;DHT22;25973;52.368;4.940;2022-12-20T01:21:41;9.80;99.90
40255;DHT22;25973;52.368;4.940;2022-12-20T01:24:12;9.80;99.90
40255;DHT22;25973;52.368;4.940;2022-12-20T01:26:38;9.80;99.90
40255;DHT22;25973;52.368;4.940;2022-12-20T01:29:04;9.80;99.90
40255;DHT22;25973;52.368;4.940;2022-12-20T01:31:30;9.80;99.90
40255;DHT22;25973;52.368;4.940;2022-12-20T01:33:56;9.80;99.90
40255;DHT22;25973;52.368;4.940;2022-12-20T01:36:24;9.80;99.90
40255;DHT22;25973;52.368;4.940;2022-12-20T01:41:45;9.80;99.90
40255;DHT22;25973;52.368;4.940;2022-12-20T01:46:44;9.70;99.90
40255;DHT22;25973;52.368;4.940;2022-12-20T01:49:20;9.80;99.90
40255;DHT22;25973;52.368;4.940;2022-12-20T01:51:54;9.80;99.90
40255;DHT22;25973;52.368;4.940;2022-12-20T01:54:26;9.70;99.90
40255;DHT22;25973;52.368;4.940;2022-12-20T01:56:57;9.70;99.90
40255;DHT22;25973;52.368;4.940;2022-12-20T01:59:24;9.70;99.90
40255;DHT22;25973;52.368;4.940;2022-12-20T02:01:50;9.70;99.90
40255;DHT22;25973;52.368;4.940;2022-12-20T02:04:19;9.80;99.90
40255;DHT22;25973;52.368;4.940;2022-12-20T02:06:44;9.70;99.90
40255;DHT22;25973;52.368;4.940;2022-12-20T02:09:10;9.70;99.90
40255;DHT22;25973;52.368;4.940;2022-12-20T02:11:51;9.70;99.90
40255;DHT22;25973;52.368;4.940;2022-12-20T02:14:53;9.70;99.90
40255;DHT22;25973;52.368;4.940;2022-12-20T02:17:49;9.70;99.90
40255;DHT22;25973;52.368;4.940;2022-12-20T02:23:31;9.70;99.90
40255;DHT22;25973;52.368;4.940;2022-12-20T02:29:06;9.70;99.90
40255;DHT22;25973;52.368;4.940;2022-12-20T02:31:41;9.70;99.90
40255;DHT22;25973;52.368;4.940;2022-12-20T02:34:09;9.70;99.90
40255;DHT22;25973;52.368;4.940;2022-12-20T02:36:35;9.70;99.90
40255;DHT22;25973;52.368;4.940;2022-12-20T02:39:00;9.80;99.90
40255;DHT22;25973;52.368;4.940;2022-12-20T02:41:31;9.80;99.90
40255;DHT22;25973;52.368;4.940;2022-12-20T02:44:04;9.80;99.90
40255;DHT22;25973;52.368;4.940;2022-12-20T02:46:49;9.80;99.90
40255;DHT22;25973;52.368;4.940;2022-12-20T02:49:21;9.90;99.90
40255;DHT22;25973;52.368;4.940;2022-12-20T02:51:51;9.90;99.90
40255;DHT22;25973;52.368;4.940;2022-12-20T02:54:18;9.90;99.90
40255;DHT22;25973;52.368;4.940;2022-12-20T02:56:49;9.90;99.90
40255;DHT22;25973;52.368;4.940;2022-12-20T02:59:22;9.90;99.90
40255;DHT22;25973;52.368;4.940;2022-12-20T03:01:52;10.00;99.90
40255;DHT22;25973;52.368;4.940;2022-12-20T03:04:21;10.00;99.90
40255;DHT22;25973;52.368;4.940;2022-12-20T03:07:03;10.00;99.90
40255;DHT22;25973;52.368;4.940;2022-12-20T03:09:31;10.00;99.90
40255;DHT22;25973;52.368;4.940;2022-12-20T03:11:57;10.00;99.90
40255;DHT22;25973;52.368;4.940;2022-12-20T03:14:23;10.00;99.90
40255;DHT22;25973;52.368;4.940;2022-12-20T03:16:49;10.00;99.90
40255;DHT22;25973;52.368;4.940;2022-12-20T03:19:14;10.00;99.90
40255;DHT22;25973;52.368;4.940;2022-12-20T03:21:41;10.00;99.90
40255;DHT22;25973;52.368;4.940;2022-12-20T03:24:06;10.00;99.90
40255;DHT22;25973;52.368;4.940;2022-12-20T03:26:32;10.00;99.90
40255;DHT22;25973;52.368;4.940;2022-12-20T03:28:57;10.00;99.90
40255;DHT22;25973;52.368;4.940;2022-12-20T03:31:23;10.10;99.90
40255;DHT22;25973;52.368;4.940;2022-12-20T03:33:49;10.10;99.90
40255;DHT22;25973;52.368;4.940;2022-12-20T03:36:14;10.10;99.90
40255;DHT22;25973;52.368;4.940;2022-12-20T03:38:40;10.10;99.90
40255;DHT22;25973;52.368;4.940;2022-12-20T03:41:05;10.10;99.90
40255;DHT22;25973;52.368;4.940;2022-12-20T03:43:31;10.10;99.90
40255;DHT22;25973;52.368;4.940;2022-12-20T03:45:57;10.10;99.90
40255;DHT22;25973;52.368;4.940;2022-12-20T03:48:22;10.10;99.90
40255;DHT22;25973;52.368;4.940;2022-12-20T03:50:48;10.00;99.90
40255;DHT22;25973;52.368;4.940;2022-12-20T03:53:17;10.10;99.90
40255;DHT22;25973;52.368;4.940;2022-12-20T03:55:42;10.10;99.90
40255;DHT22;25973;52.368;4.940;2022-12-20T03:58:08;10.20;99.90
40255;DHT22;25973;52.368;4.940;2022-12-20T04:00:33;10.20;99.90
40255;DHT22;25973;52.368;4.940;2022-12-20T04:02:59;10.20;99.90
40255;DHT22;25973;52.368;4.940;2022-12-20T04:05:24;10.20;99.90
40255;DHT22;25973;52.368;4.940;2022-12-20T04:07:50;10.20;99.90
40255;DHT22;25973;52.368;4.940;2022-12-20T04:10:16;10.20;99.90
40255;DHT22;25973;52.368;4.940;2022-12-20T04:12:41;10.20;99.90
40255;DHT22;25973;52.368;4.940;2022-12-20T04:15:07;10.20;99.90
40255;DHT22;25973;52.368;4.940;2022-12-20T04:17:33;10.20;99.90
40255;DHT22;25973;52.368;4.940;2022-12-20T04:19:58;10.20;99.90
40255;DHT22;25973;52.368;4.940;2022-12-20T04:22:44;10.20;99.90
40255;DHT22;25973;52.368;4.940;2022-12-20T04:25:09;10.20;99.90
40255;DHT22;25973;52.368;4.940;2022-12-20T04:27:35;10.20;99.90
40255;DHT22;25973;52.368;4.940;2022-12-20T04:30:00;10.20;99.90
40255;DHT22;25973;52.368;4.940;2022-12-20T04:32:26;10.30;99.90
40255;DHT22;25973;52.368;4.940;2022-12-20T04:34:51;10.30;99.90
40255;DHT22;25973;52.368;4.940;2022-12-20T04:37:17;10.20;99.90
40255;DHT22;25973;52.368;4.940;2022-12-20T04:39:42;10.20;99.90
40255;DHT22;25973;52.368;4.940;2022-12-20T04:42:08;10.30;99.90
40255;DHT22;25973;52.368;4.940;2022-12-20T04:44:34;10.30;99.90
40255;DHT22;25973;52.368;4.940;2022-12-20T04:46:59;10.30;99.90
40255;DHT22;25973;52.368;4.940;2022-12-20T04:49:25;10.30;99.90
40255;DHT22;25973;52.368;4.940;2022-12-20T04:51:50;10.30;99.90
40255;DHT22;25973;52.368;4.940;2022-12-20T04:54:16;10.30;99.90
40255;DHT22;25973;52.368;4.940;2022-12-20T04:56:41;10.40;99.90
40255;DHT22;25973;52.368;4.940;2022-12-20T04:59:07;10.40;99.90
40255;DHT22;25973;52.368;4.940;2022-12-20T05:01:33;10.30;99.90
40255;DHT22;25973;52.368;4.940;2022-12-20T05:03:58;10.30;99.90
40255;DHT22;25973;52.368;4.940;2022-12-20T05:06:24;10.30;99.90
40255;DHT22;25973;52.368;4.940;2022-12-20T05:08:49;10.30;99.90
40255;DHT22;25973;52.368;4.940;2022-12-20T05:11:15;10.20;99.90
40255;DHT22;25973;52.368;4.940;2022-12-20T05:13:41;10.30;99.90
40255;DHT22;25973;52.368;4.940;2022-12-20T05:16:07;10.30;99.90
40255;DHT22;25973;52.368;4.940;2022-12-20T05:18:32;10.30;99.90
40255;DHT22;25973;52.368;4.940;2022-12-20T05:20:59;10.20;99.90
40255;DHT22;25973;52.368;4.940;2022-12-20T05:23:43;10.20;99.90
40255;DHT22;25973;52.368;4.940;2022-12-20T05:26:33;10.20;99.90
40255;DHT22;25973;52.368;4.940;2022-12-20T05:29:00;10.20;99.90
40255;DHT22;25973;52.368;4.940;2022-12-20T05:31:26;10.30;99.90
40255;DHT22;25973;52.368;4.940;2022-12-20T05:33:52;10.30;99.90
40255;DHT22;25973;52.368;4.940;2022-12-20T05:36:18;10.30;99.90
40255;DHT22;25973;52.368;4.940;2022-12-20T05:38:44;10.30;99.90
40255;DHT22;25973;52.368;4.940;2022-12-20T05:41:10;10.40;99.90
40255;DHT22;25973;52.368;4.940;2022-12-20T05:43:35;10.30;99.90
40255;DHT22;25973;52.368;4.940;2022-12-20T05:46:01;10.30;99.90
40255;DHT22;25973;52.368;4.940;2022-12-20T05:48:26;10.30;99.90
40255;DHT22;25973;52.368;4.940;2022-12-20T05:50:52;10.40;99.90
40255;DHT22;25973;52.368;4.940;2022-12-20T05:53:18;10.40;99.90
40255;DHT22;25973;52.368;4.940;2022-12-20T05:55:46;10.40;99.90
40255;DHT22;25973;52.368;4.940;2022-12-20T05:58:11;10.40;99.90
40255;DHT22;25973;52.368;4.940;2022-12-20T06:00:39;10.40;99.90
40255;DHT22;25973;52.368;4.940;2022-12-20T06:03:05;10.40;99.90
40255;DHT22;25973;52.368;4.940;2022-12-20T06:05:30;10.40;99.90
40255;DHT22;25973;52.368;4.940;2022-12-20T06:07:56;10.40;99.90
40255;DHT22;25973;52.368;4.940;2022-12-20T06:10:22;10.50;99.90
40255;DHT22;25973;52.368;4.940;2022-12-20T06:12:48;10.40;99.90
40255;DHT22;25973;52.368;4.940;2022-12-20T06:15:14;10.50;99.90
40255;DHT22;25973;52.368;4.940;2022-12-20T06:17:40;10.50;99.90
40255;DHT22;25973;52.368;4.940;2022-12-20T06:20:06;10.50;99.90
40255;DHT22;25973;52.368;4.940;2022-12-20T06:22:32;10.50;99.90
40255;DHT22;25973;52.368;4.940;2022-12-20T06:24:57;10.50;99.90
40255;DHT22;25973;52.368;4.940;2022-12-20T06:27:23;10.60;99.90
40255;DHT22;25973;52.368;4.940;2022-12-20T06:29:49;10.50;99.90
40255;DHT22;25973;52.368;4.940;2022-12-20T06:32:18;10.60;99.90
40255;DHT22;25973;52.368;4.940;2022-12-20T06:34:44;10.60;99.90
40255;DHT22;25973;52.368;4.940;2022-12-20T06:37:10;10.60;99.90
40255;DHT22;25973;52.368;4.940;2022-12-20T06:39:36;10.60;99.90
40255;DHT22;25973;52.368;4.940;2022-12-20T06:42:02;10.60;99.90
40255;DHT22;25973;52.368;4.940;2022-12-20T06:44:27;10.60;99.90
40255;DHT22;25973;52.368;4.940;2022-12-20T06:46:53;10.60;99.90
40255;DHT22;25973;52.368;4.940;2022-12-20T06:49:18;10.60;99.90
40255;DHT22;25973;52.368;4.940;2022-12-20T06:51:44;10.60;99.90
40255;DHT22;25973;52.368;4.940;2022-12-20T06:54:10;10.60;99.90
40255;DHT22;25973;52.368;4.940;2022-12-20T06:56:35;10.60;99.90
40255;DHT22;25973;52.368;4.940;2022-12-20T06:59:01;10.60;99.90
40255;DHT22;25973;52.368;4.940;2022-12-20T07:01:26;10.60;99.90
40255;DHT22;25973;52.368;4.940;2022-12-20T07:03:52;10.60;99.90
40255;DHT22;25973;52.368;4.940;2022-12-20T07:06:18;10.60;99.90
40255;DHT22;25973;52.368;4.940;2022-12-20T07:08:43;10.60;99.90
40255;DHT22;25973;52.368;4.940;2022-12-20T07:11:09;10.60;99.90
40255;DHT22;25973;52.368;4.940;2022-12-20T07:13:35;10.60;99.90
40255;DHT22;25973;52.368;4.940;2022-12-20T07:16:02;10.60;99.90
40255;DHT22;25973;52.368;4.940;2022-12-20T07:18:28;10.60;99.90
40255;DHT22;25973;52.368;4.940;2022-12-20T07:20:58;10.60;99.90
40255;DHT22;25973;52.368;4.940;2022-12-20T07:23:24;10.60;99.90
40255;DHT22;25973;52.368;4.940;2022-12-20T07:25:54;10.60;99.90
40255;DHT22;25973;52.368;4.940;2022-12-20T07:28:20;10.60;99.90
40255;DHT22;25973;52.368;4.940;2022-12-20T07:30:45;10.60;99.90
40255;DHT22;25973;52.368;4.940;2022-12-20T07:33:11;10.60;99.90
40255;DHT22;25973;52.368;4.940;2022-12-20T07:35:37;10.60;99.90
40255;DHT22;25973;52.368;4.940;2022-12-20T07:38:02;10.60;99.90
40255;DHT22;25973;52.368;4.940;2022-12-20T07:40:28;10.70;99.90
40255;DHT22;25973;52.368;4.940;2022-12-20T07:42:54;10.70;99.90
40255;DHT22;25973;52.368;4.940;2022-12-20T07:45:19;10.70;99.90
40255;DHT22;25973;52.368;4.940;2022-12-20T07:47:45;10.70;99.90
40255;DHT22;25973;52.368;4.940;2022-12-20T07:50:10;10.70;99.90
40255;DHT22;25973;52.368;4.940;2022-12-20T07:52:36;10.70;99.90
40255;DHT22;25973;52.368;4.940;2022-12-20T07:55:06;10.80;99.90
40255;DHT22;25973;52.368;4.940;2022-12-20T07:57:40;10.80;99.90
40255;DHT22;25973;52.368;4.940;2022-12-20T08:00:07;10.80;99.90
40255;DHT22;25973;52.368;4.940;2022-12-20T08:02:37;10.90;99.90
40255;DHT22;25973;52.368;4.940;2022-12-20T08:05:06;10.90;99.90
40255;DHT22;25973;52.368;4.940;2022-12-20T08:07:33;10.90;99.90
40255;DHT22;25973;52.368;4.940;2022-12-20T08:09:59;10.90;99.90
40255;DHT22;25973;52.368;4.940;2022-12-20T08:12:27;10.90;99.90
40255;DHT22;25973;52.368;4.940;2022-12-20T08:14:53;10.90;99.90
40255;DHT22;25973;52.368;4.940;2022-12-20T08:17:21;10.90;99.90
40255;DHT22;25973;52.368;4.940;2022-12-20T08:19:47;10.90;99.90
40255;DHT22;25973;52.368;4.940;2022-12-20T08:22:16;10.90;99.90
40255;DHT22;25973;52.368;4.940;2022-12-20T08:24:42;10.90;99.90
40255;DHT22;25973;52.368;4.940;2022-12-20T08:27:08;10.90;99.90
40255;DHT22;25973;52.368;4.940;2022-12-20T08:29:34;10.90;99.90
40255;DHT22;25973;52.368;4.940;2022-12-20T08:31:59;10.90;99.90
40255;DHT22;25973;52.368;4.940;2022-12-20T08:34:25;10.90;99.90
40255;DHT22;25973;52.368;4.940;2022-12-20T08:36:51;10.90;99.90
40255;DHT22;25973;52.368;4.940;2022-12-20T08:39:16;10.80;99.90
40255;DHT22;25973;52.368;4.940;2022-12-20T08:41:42;10.90;99.90
40255;DHT22;25973;52.368;4.940;2022-12-20T08:44:08;10.80;99.90
40255;DHT22;25973;52.368;4.940;2022-12-20T08:46:35;10.70;99.90
40255;DHT22;25973;52.368;4.940;2022-12-20T08:49:04;10.70;99.90
40255;DHT22;25973;52.368;4.940;2022-12-20T08:51:30;10.60;99.90
40255;DHT22;25973;52.368;4.940;2022-12-20T08:53:56;10.60;99.90
40255;DHT22;25973;52.368;4.940;2022-12-20T08:56:22;10.60;99.90
40255;DHT22;25973;52.368;4.940;2022-12-20T08:58:48;10.60;99.90
40255;DHT22;25973;52.368;4.940;2022-12-20T09:01:16;10.60;99.90
40255;DHT22;25973;52.368;4.940;2022-12-20T09:03:43;10.60;99.90
40255;DHT22;25973;52.368;4.940;2022-12-20T09:06:11;10.60;99.90
40255;DHT22;25973;52.368;4.940;2022-12-20T09:08:38;10.60;99.90
40255;DHT22;25973;52.368;4.940;2022-12-20T09:11:16;10.60;99.90
40255;DHT22;25973;52.368;4.940;2022-12-20T09:13:44;10.60;99.90
40255;DHT22;25973;52.368;4.940;2022-12-20T09:16:12;10.60;99.90
40255;DHT22;25973;52.368;4.940;2022-12-20T09:18:38;10.60;99.90
40255;DHT22;25973;52.368;4.940;2022-12-20T09:21:06;10.60;99.90
40255;DHT22;25973;52.368;4.940;2022-12-20T09:23:35;10.60;99.90
40255;DHT22;25973;52.368;4.940;2022-12-20T09:26:20;10.60;99.90
40255;DHT22;25973;52.368;4.940;2022-12-20T09:28:47;10.60;99.90
40255;DHT22;25973;52.368;4.940;2022-12-20T09:31:16;10.60;99.90
40255;DHT22;25973;52.368;4.940;2022-12-20T09:33:42;10.60;99.90
40255;DHT22;25973;52.368;4.940;2022-12-20T09:36:16;10.70;99.90
40255;DHT22;25973;52.368;4.940;2022-12-20T09:38:42;10.70;99.90
40255;DHT22;25973;52.368;4.940;2022-12-20T09:43:47;10.70;99.90
40255;DHT22;25973;52.368;4.940;2022-12-20T09:46:13;10.70;99.90
40255;DHT22;25973;52.368;4.940;2022-12-20T09:48:39;10.70;99.90
40255;DHT22;25973;52.368;4.940;2022-12-20T09:54:11;10.70;99.90
40255;DHT22;25973;52.368;4.940;2022-12-20T09:56:45;10.80;99.90
40255;DHT22;25973;52.368;4.940;2022-12-20T09:59:14;10.80;99.90
40255;DHT22;25973;52.368;4.940;2022-12-20T10:01:44;10.70;99.90
40255;DHT22;25973;52.368;4.940;2022-12-20T10:04:23;10.80;99.90
40255;DHT22;25973;52.368;4.940;2022-12-20T10:15:46;10.80;99.90
40255;DHT22;25973;52.368;4.940;2022-12-20T10:20:53;10.80;99.90
40255;DHT22;25973;52.368;4.940;2022-12-20T10:23:42;10.80;99.90
40255;DHT22;25973;52.368;4.940;2022-12-20T10:26:12;10.80;99.90
40255;DHT22;25973;52.368;4.940;2022-12-20T10:28:38;10.80;99.90
40255;DHT22;25973;52.368;4.940;2022-12-20T10:31:12;10.80;99.90
40255;DHT22;25973;52.368;4.940;2022-12-20T10:33:38;10.80;99.90
40255;DHT22;25973;52.368;4.940;2022-12-20T10:36:28;10.80;99.90
40255;DHT22;25973;52.368;4.940;2022-12-20T10:39:02;10.80;99.90
40255;DHT22;25973;52.368;4.940;2022-12-20T10:46:48;10.80;99.90
40255;DHT22;25973;52.368;4.940;2022-12-20T10:49:36;10.80;99.90
40255;DHT22;25973;52.368;4.940;2022-12-20T10:54:46;10.80;99.90
40255;DHT22;25973;52.368;4.940;2022-12-20T10:57:19;10.70;99.90
40255;DHT22;25973;52.368;4.940;2022-12-20T10:59:58;10.80;99.90
40255;DHT22;25973;52.368;4.940;2022-12-20T11:02:29;10.80;99.90
40255;DHT22;25973;52.368;4.940;2022-12-20T11:10:21;10.80;99.90
40255;DHT22;25973;52.368;4.940;2022-12-20T11:13:00;10.80;99.90
40255;DHT22;25973;52.368;4.940;2022-12-20T11:15:32;10.80;99.90
40255;DHT22;25973;52.368;4.940;2022-12-20T11:20:43;10.80;99.90
40255;DHT22;25973;52.368;4.940;2022-12-20T11:23:22;10.80;99.90
40255;DHT22;25973;52.368;4.940;2022-12-20T11:26:04;10.90;99.90
40255;DHT22;25973;52.368;4.940;2022-12-20T11:31:11;10.90;99.90
40255;DHT22;25973;52.368;4.940;2022-12-20T11:33:57;10.90;99.90
40255;DHT22;25973;52.368;4.940;2022-12-20T11:39:34;10.90;99.90
40255;DHT22;25973;52.368;4.940;2022-12-20T11:44:59;10.90;99.90
40255;DHT22;25973;52.368;4.940;2022-12-20T11:47:51;10.90;99.90
40255;DHT22;25973;52.368;4.940;2022-12-20T11:55:40;11.00;99.90
40255;DHT22;25973;52.368;4.940;2022-12-20T11:58:19;11.10;99.90
40255;DHT22;25973;52.368;4.940;2022-12-20T12:01:07;11.10;99.90
40255;DHT22;25973;52.368;4.940;2022-12-20T12:03:42;11.10;99.90
40255;DHT22;25973;52.368;4.940;2022-12-20T12:06:21;11.10;99.90
40255;DHT22;25973;52.368;4.940;2022-12-20T12:08:52;11.10;99.90
40255;DHT22;25973;52.368;4.940;2022-12-20T12:11:23;11.10;99.90
40255;DHT22;25973;52.368;4.940;2022-12-20T12:13:49;11.10;99.90
40255;DHT22;25973;52.368;4.940;2022-12-20T12:16:25;11.10;99.90
40255;DHT22;25973;52.368;4.940;2022-12-20T12:18:52;11.10;99.90
40255;DHT22;25973;52.368;4.940;2022-12-20T12:21:26;11.20;99.90
40255;DHT22;25973;52.368;4.940;2022-12-20T12:23:59;11.20;99.90
40255;DHT22;25973;52.368;4.940;2022-12-20T12:26:31;11.20;99.90
40255;DHT22;25973;52.368;4.940;2022-12-20T12:29:03;11.20;99.90
40255;DHT22;25973;52.368;4.940;2022-12-20T12:40:08;11.10;99.90
40255;DHT22;25973;52.368;4.940;2022-12-20T12:46:00;11.20;99.90
40255;DHT22;25973;52.368;4.940;2022-12-20T12:48:14;11.20;99.90
40255;DHT22;25973;52.368;4.940;2022-12-20T12:50:46;11.30;99.90
40255;DHT22;25973;52.368;4.940;2022-12-20T12:55:56;11.30;99.90
40255;DHT22;25973;52.368;4.940;2022-12-20T13:00:58;11.30;99.90
40255;DHT22;25973;52.368;4.940;2022-12-20T13:11:37;11.40;99.90
40255;DHT22;25973;52.368;4.940;2022-12-20T13:21:57;11.40;99.90
40255;DHT22;25973;52.368;4.940;2022-12-20T13:27:49;11.50;99.90
40255;DHT22;25973;52.368;4.940;2022-12-20T13:29:58;11.50;99.90
40255;DHT22;25973;52.368;4.940;2022-12-20T13:41:00;11.50;99.90
40255;DHT22;25973;52.368;4.940;2022-12-20T13:43:42;11.50;99.90
40255;DHT22;25973;52.368;4.940;2022-12-20T13:51:23;11.50;99.90
40255;DHT22;25973;52.368;4.940;2022-12-20T13:54:00;11.50;99.90
40255;DHT22;25973;52.368;4.940;2022-12-20T13:58:53;11.50;99.90
40255;DHT22;25973;52.368;4.940;2022-12-20T14:01:22;11.50;99.90
40255;DHT22;25973;52.368;4.940;2022-12-20T14:03:48;11.60;99.90
40255;DHT22;25973;52.368;4.940;2022-12-20T14:06:17;11.50;99.90
40255;DHT22;25973;52.368;4.940;2022-12-20T14:08:46;11.60;99.90
40255;DHT22;25973;52.368;4.940;2022-12-20T14:13:40;11.60;99.90
40255;DHT22;25973;52.368;4.940;2022-12-20T14:16:17;11.60;99.90
40255;DHT22;25973;52.368;4.940;2022-12-20T14:19:03;11.60;99.90
40255;DHT22;25973;52.368;4.940;2022-12-20T14:21:29;11.60;99.90
40255;DHT22;25973;52.368;4.940;2022-12-20T14:23:57;11.60;99.90
40255;DHT22;25973;52.368;4.940;2022-12-20T14:26:27;11.60;99.90
40255;DHT22;25973;52.368;4.940;2022-12-20T14:28:55;11.50;99.90
40255;DHT22;25973;52.368;4.940;2022-12-20T14:34:05;11.50;99.90
40255;DHT22;25973;52.368;4.940;2022-12-20T14:36:37;11.50;99.90
40255;DHT22;25973;52.368;4.940;2022-12-20T14:39:26;11.50;99.90
40255;DHT22;25973;52.368;4.940;2022-12-20T14:42:15;11.50;99.90
40255;DHT22;25973;52.368;4.940;2022-12-20T14:44:42;11.50;99.90
40255;DHT22;25973;52.368;4.940;2022-12-20T14:47:26;11.50;99.90
40255;DHT22;25973;52.368;4.940;2022-12-20T14:50:00;11.50;99.90
40255;DHT22;25973;52.368;4.940;2022-12-20T14:55:03;11.50;99.90
40255;DHT22;25973;52.368;4.940;2022-12-20T14:57:44;11.50;99.90
40255;DHT22;25973;52.368;4.940;2022-12-20T15:03:09;11.50;99.90
40255;DHT22;25973;52.368;4.940;2022-12-20T15:05:42;11.50;99.90
40255;DHT22;25973;52.368;4.940;2022-12-20T15:13:22;11.40;99.90
40255;DHT22;25973;52.368;4.940;2022-12-20T15:15:49;11.50;99.90
40255;DHT22;25973;52.368;4.940;2022-12-20T15:18:16;11.50;99.90
40255;DHT22;25973;52.368;4.940;2022-12-20T15:20:44;11.50;99.90
40255;DHT22;25973;52.368;4.940;2022-12-20T15:23:19;11.50;99.90
40255;DHT22;25973;52.368;4.940;2022-12-20T15:25:45;11.50;99.90
40255;DHT22;25973;52.368;4.940;2022-12-20T15:28:20;11.50;99.90
40255;DHT22;25973;52.368;4.940;2022-12-20T15:30:47;11.60;99.90
40255;DHT22;25973;52.368;4.940;2022-12-20T15:33:22;11.60;99.90
40255;DHT22;25973;52.368;4.940;2022-12-20T15:35:49;11.60;99.90
40255;DHT22;25973;52.368;4.940;2022-12-20T15:38:19;11.50;99.90
40255;DHT22;25973;52.368;4.940;2022-12-20T15:40:47;11.50;99.90
40255;DHT22;25973;52.368;4.940;2022-12-20T15:43:17;11.60;99.90
40255;DHT22;25973;52.368;4.940;2022-12-20T15:45:44;11.60;99.90
40255;DHT22;25973;52.368;4.940;2022-12-20T15:48:20;11.60;99.90
40255;DHT22;25973;52.368;4.940;2022-12-20T15:50:53;11.60;99.90
40255;DHT22;25973;52.368;4.940;2022-12-20T15:53:26;11.60;99.90
40255;DHT22;25973;52.368;4.940;2022-12-20T15:55:54;11.60;99.90
40255;DHT22;25973;52.368;4.940;2022-12-20T15:58:20;11.60;99.90
40255;DHT22;25973;52.368;4.940;2022-12-20T16:00:46;11.60;99.90
40255;DHT22;25973;52.368;4.940;2022-12-20T16:03:14;11.60;99.90
40255;DHT22;25973;52.368;4.940;2022-12-20T16:05:41;11.60;99.90
40255;DHT22;25973;52.368;4.940;2022-12-20T16:08:06;11.60;99.90
40255;DHT22;25973;52.368;4.940;2022-12-20T16:10:32;11.60;99.90
40255;DHT22;25973;52.368;4.940;2022-12-20T16:12:58;11.60;99.90
40255;DHT22;25973;52.368;4.940;2022-12-20T16:15:24;11.50;99.90
40255;DHT22;25973;52.368;4.940;2022-12-20T16:17:50;11.60;99.90
40255;DHT22;25973;52.368;4.940;2022-12-20T16:20:16;11.50;99.90
40255;DHT22;25973;52.368;4.940;2022-12-20T16:22:41;11.50;99.90
40255;DHT22;25973;52.368;4.940;2022-12-20T16:25:27;11.50;99.90
40255;DHT22;25973;52.368;4.940;2022-12-20T16:27:53;11.50;99.90
40255;DHT22;25973;52.368;4.940;2022-12-20T16:30:19;11.50;99.90
40255;DHT22;25973;52.368;4.940;2022-12-20T16:32:44;11.40;99.90
40255;DHT22;25973;52.368;4.940;2022-12-20T16:35:30;11.40;99.90
40255;DHT22;25973;52.368;4.940;2022-12-20T16:37:57;11.40;99.90
40255;DHT22;25973;52.368;4.940;2022-12-20T16:40:26;11.40;99.90
40255;DHT22;25973;52.368;4.940;2022-12-20T16:42:52;11.40;99.90
40255;DHT22;25973;52.368;4.940;2022-12-20T16:45:21;11.40;99.90
40255;DHT22;25973;52.368;4.940;2022-12-20T16:47:48;11.40;99.90
40255;DHT22;25973;52.368;4.940;2022-12-20T16:50:15;11.40;99.90
40255;DHT22;25973;52.368;4.940;2022-12-20T16:52:41;11.40;99.90
40255;DHT22;25973;52.368;4.940;2022-12-20T16:55:13;11.40;99.90
40255;DHT22;25973;52.368;4.940;2022-12-20T16:57:39;11.40;99.90
40255;DHT22;25973;52.368;4.940;2022-12-20T17:00:05;11.40;99.90
40255;DHT22;25973;52.368;4.940;2022-12-20T17:02:32;11.40;99.90
40255;DHT22;25973;52.368;4.940;2022-12-20T17:04:59;11.40;99.90
40255;DHT22;25973;52.368;4.940;2022-12-20T17:07:25;11.40;99.90
40255;DHT22;25973;52.368;4.940;2022-12-20T17:09:51;11.40;99.90
40255;DHT22;25973;52.368;4.940;2022-12-20T17:12:18;11.40;99.90
40255;DHT22;25973;52.368;4.940;2022-12-20T17:14:45;11.40;99.90
40255;DHT22;25973;52.368;4.940;2022-12-20T17:17:11;11.40;99.90
40255;DHT22;25973;52.368;4.940;2022-12-20T17:19:42;11.40;99.90
40255;DHT22;25973;52.368;4.940;2022-12-20T17:22:10;11.40;99.90
40255;DHT22;25973;52.368;4.940;2022-12-20T17:24:36;11.40;99.90
40255;DHT22;25973;52.368;4.940;2022-12-20T17:27:02;11.40;99.90
40255;DHT22;25973;52.368;4.940;2022-12-20T17:29:28;11.40;99.90
40255;DHT22;25973;52.368;4.940;2022-12-20T17:31:53;11.40;99.90
40255;DHT22;25973;52.368;4.940;2022-12-20T17:34:27;11.40;99.90
40255;DHT22;25973;52.368;4.940;2022-12-20T17:36:55;11.40;99.90
40255;DHT22;25973;52.368;4.940;2022-12-20T17:39:21;11.30;99.90
40255;DHT22;25973;52.368;4.940;2022-12-20T17:41:48;11.40;99.90
40255;DHT22;25973;52.368;4.940;2022-12-20T17:44:21;11.40;99.90
40255;DHT22;25973;52.368;4.940;2022-12-20T17:46:48;11.40;99.90
40255;DHT22;25973;52.368;4.940;2022-12-20T17:49:15;11.40;99.90